sensor_id;sensor_type;location;lat;lon;timestamp;temperature;humidity
3281;DHT22;1652;51.318;6.202;2023-04-08T00:01:43;8.40;99.90
3281;DHT22;1652;51.318;6.202;2023-04-08T00:04:10;8.40;99.90
3281;DHT22;1652;51.318;6.202;2023-04-08T00:06:38;8.40;99.90
3281;DHT22;1652;51.318;6.202;2023-04-08T00:09:05;8.40;99.90
3281;DHT22;1652;51.318;6.202;2023-04-08T00:11:32;8.40;99.90
3281;DHT22;1652;51.318;6.202;2023-04-08T00:13:59;8.40;99.90
3281;DHT22;1652;51.318;6.202;2023-04-08T00:16:26;8.50;99.90
3281;DHT22;1652;51.318;6.202;2023-04-08T00:18:53;8.50;99.90
3281;DHT22;1652;51.318;6.202;2023-04-08T00:21:20;8.40;99.90
3281;DHT22;1652;51.318;6.202;2023-04-08T00:23:47;8.40;99.90
3281;DHT22;1652;51.318;6.202;2023-04-08T00:26:14;8.40;99.90
3281;DHT22;1652;51.318;6.202;2023-04-08T00:28:41;8.40;99.90
3281;DHT22;1652;51.318;6.202;2023-04-08T00:31:08;8.40;99.90
3281;DHT22;1652;51.318;6.202;2023-04-08T00:33:35;8.40;99.90
3281;DHT22;1652;51.318;6.202;2023-04-08T00:36:02;8.40;99.90
3281;DHT22;1652;51.318;6.202;2023-04-08T00:38:29;8.40;99.90
3281;DHT22;1652;51.318;6.202;2023-04-08T00:40:56;8.40;99.90
3281;DHT22;1652;51.318;6.202;2023-04-08T00:43:24;8.30;99.90
3281;DHT22;1652;51.318;6.202;2023-04-08T00:45:51;8.30;99.90
3281;DHT22;1652;51.318;6.202;2023-04-08T00:48:17;8.30;99.90
3281;DHT22;1652;51.318;6.202;2023-04-08T00:50:44;8.30;99.90
3281;DHT22;1652;51.318;6.202;2023-04-08T00:53:17;8.30;99.90
3281;DHT22;1652;51.318;6.202;2023-04-08T00:55:44;8.30;99.90
3281;DHT22;1652;51.318;6.202;2023-04-08T00:58:12;8.30;99.90
3281;DHT22;1652;51.318;6.202;2023-04-08T01:00:45;8.30;99.90
3281;DHT22;1652;51.318;6.202;2023-04-08T01:03:24;8.30;99.90
3281;DHT22;1652;51.318;6.202;2023-04-08T01:06:06;8.30;99.90
3281;DHT22;1652;51.318;6.202;2023-04-08T01:08:38;8.30;99.90
3281;DHT22;1652;51.318;6.202;2023-04-08T01:11:10;8.30;99.90
3281;DHT22;1652;51.318;6.202;2023-04-08T01:13:40;8.30;99.90
3281;DHT22;1652;51.318;6.202;2023-04-08T01:16:11;8.30;99.90
3281;DHT22;1652;51.318;6.202;2023-04-08T01:18:40;8.30;99.90
3281;DHT22;1652;51.318;6.202;2023-04-08T01:21:08;8.20;99.90
3281;DHT22;1652;51.318;6.202;2023-04-08T01:23:52;8.30;99.90
3281;DHT22;1652;51.318;6.202;2023-04-08T01:26:22;8.30;99.90
3281;DHT22;1652;51.318;6.202;2023-04-08T01:28:52;8.30;99.90
3281;DHT22;1652;51.318;6.202;2023-04-08T01:31:21;8.30;99.90
3281;DHT22;1652;51.318;6.202;2023-04-08T01:33:50;8.30;99.90
3281;DHT22;1652;51.318;6.202;2023-04-08T01:36:19;8.30;99.90
3281;DHT22;1652;51.318;6.202;2023-04-08T01:38:47;8.30;99.90
3281;DHT22;1652;51.318;6.202;2023-04-08T01:41:16;8.30;99.90
3281;DHT22;1652;51.318;6.202;2023-04-08T01:43:45;8.30;99.90
3281;DHT22;1652;51.318;6.202;2023-04-08T01:46:12;8.30;99.90
3281;DHT22;1652;51.318;6.202;2023-04-08T01:48:40;8.30;99.90
3281;DHT22;1652;51.318;6.202;2023-04-08T01:51:08;8.30;99.90
3281;DHT22;1652;51.318;6.202;2023-04-08T01:53:36;8.30;99.90
3281;DHT22;1652;51.318;6.202;2023-04-08T01:56:06;8.30;99.90
3281;DHT22;1652;51.318;6.202;2023-04-08T01:58:45;8.40;99.90
3281;DHT22;1652;51.318;6.202;2023-04-08T02:01:17;8.30;99.90
3281;DHT22;1652;51.318;6.202;2023-04-08T02:03:46;8.30;99.90
3281;DHT22;1652;51.318;6.202;2023-04-08T02:06:14;8.30;99.90
3281;DHT22;1652;51.318;6.202;2023-04-08T02:08:41;8.30;99.90
3281;DHT22;1652;51.318;6.202;2023-04-08T02:11:08;8.30;99.90
3281;DHT22;1652;51.318;6.202;2023-04-08T02:13:35;8.30;99.90
3281;DHT22;1652;51.318;6.202;2023-04-08T02:18:42;8.30;99.90
3281;DHT22;1652;51.318;6.202;2023-04-08T02:21:13;8.30;99.90
3281;DHT22;1652;51.318;6.202;2023-04-08T02:23:45;8.30;99.90
3281;DHT22;1652;51.318;6.202;2023-04-08T02:26:15;8.30;99.90
3281;DHT22;1652;51.318;6.202;2023-04-08T02:28:42;8.30;99.90
3281;DHT22;1652;51.318;6.202;2023-04-08T02:31:11;8.30;99.90
3281;DHT22;1652;51.318;6.202;2023-04-08T02:33:40;8.30;99.90
3281;DHT22;1652;51.318;6.202;2023-04-08T02:36:08;8.30;99.90
3281;DHT22;1652;51.318;6.202;2023-04-08T02:38:36;8.30;99.90
3281;DHT22;1652;51.318;6.202;2023-04-08T02:41:03;8.30;99.90
3281;DHT22;1652;51.318;6.202;2023-04-08T02:43:30;8.30;99.90
3281;DHT22;1652;51.318;6.202;2023-04-08T02:45:59;8.20;99.90
3281;DHT22;1652;51.318;6.202;2023-04-08T02:48:29;8.20;99.90
3281;DHT22;1652;51.318;6.202;2023-04-08T02:50:56;8.30;99.90
3281;DHT22;1652;51.318;6.202;2023-04-08T02:53:23;8.30;99.90
3281;DHT22;1652;51.318;6.202;2023-04-08T02:55:50;8.20;99.90
3281;DHT22;1652;51.318;6.202;2023-04-08T02:58:17;8.20;99.90
3281;DHT22;1652;51.318;6.202;2023-04-08T03:00:44;8.20;99.90
3281;DHT22;1652;51.318;6.202;2023-04-08T03:03:11;8.30;99.90
3281;DHT22;1652;51.318;6.202;2023-04-08T03:05:38;8.20;99.90
3281;DHT22;1652;51.318;6.202;2023-04-08T03:08:05;8.30;99.90
3281;DHT22;1652;51.318;6.202;2023-04-08T03:10:32;8.20;99.90
3281;DHT22;1652;51.318;6.202;2023-04-08T03:12:59;8.20;99.90
3281;DHT22;1652;51.318;6.202;2023-04-08T03:15:26;8.20;99.90
3281;DHT22;1652;51.318;6.202;2023-04-08T03:17:53;8.30;99.90
3281;DHT22;1652;51.318;6.202;2023-04-08T03:20:20;8.30;99.90
3281;DHT22;1652;51.318;6.202;2023-04-08T03:22:47;8.20;99.90
3281;DHT22;1652;51.318;6.202;2023-04-08T03:25:14;8.30;99.90
3281;DHT22;1652;51.318;6.202;2023-04-08T03:27:41;8.20;99.90
3281;DHT22;1652;51.318;6.202;2023-04-08T03:30:08;8.20;99.90
3281;DHT22;1652;51.318;6.202;2023-04-08T03:32:35;8.20;99.90
3281;DHT22;1652;51.318;6.202;2023-04-08T03:35:03;8.20;99.90
3281;DHT22;1652;51.318;6.202;2023-04-08T03:37:30;8.20;99.90
3281;DHT22;1652;51.318;6.202;2023-04-08T03:39:57;8.10;99.90
3281;DHT22;1652;51.318;6.202;2023-04-08T03:42:24;8.20;99.90
3281;DHT22;1652;51.318;6.202;2023-04-08T03:44:51;8.20;99.90
3281;DHT22;1652;51.318;6.202;2023-04-08T03:47:18;8.20;99.90
3281;DHT22;1652;51.318;6.202;2023-04-08T03:49:45;8.20;99.90
3281;DHT22;1652;51.318;6.202;2023-04-08T03:52:12;8.20;99.90
3281;DHT22;1652;51.318;6.202;2023-04-08T03:54:39;8.20;99.90
3281;DHT22;1652;51.318;6.202;2023-04-08T03:57:05;8.20;99.90
3281;DHT22;1652;51.318;6.202;2023-04-08T03:59:32;8.20;99.90
3281;DHT22;1652;51.318;6.202;2023-04-08T04:01:59;8.20;99.90
3281;DHT22;1652;51.318;6.202;2023-04-08T04:04:26;8.20;99.90
3281;DHT22;1652;51.318;6.202;2023-04-08T04:06:53;8.20;99.90
3281;DHT22;1652;51.318;6.202;2023-04-08T04:09:20;8.30;99.90
3281;DHT22;1652;51.318;6.202;2023-04-08T04:11:47;8.30;99.90
3281;DHT22;1652;51.318;6.202;2023-04-08T04:14:14;8.30;99.90
3281;DHT22;1652;51.318;6.202;2023-04-08T04:16:41;8.30;99.90
3281;DHT22;1652;51.318;6.202;2023-04-08T04:19:08;8.20;99.90
3281;DHT22;1652;51.318;6.202;2023-04-08T04:21:34;8.30;99.90
3281;DHT22;1652;51.318;6.202;2023-04-08T04:24:01;8.30;99.90
3281;DHT22;1652;51.318;6.202;2023-04-08T04:26:28;8.20;99.90
3281;DHT22;1652;51.318;6.202;2023-04-08T04:28:55;8.20;99.90
3281;DHT22;1652;51.318;6.202;2023-04-08T04:31:23;8.20;99.90
3281;DHT22;1652;51.318;6.202;2023-04-08T04:33:53;8.20;99.90
3281;DHT22;1652;51.318;6.202;2023-04-08T04:36:20;8.30;99.90
3281;DHT22;1652;51.318;6.202;2023-04-08T04:38:48;8.30;99.90
3281;DHT22;1652;51.318;6.202;2023-04-08T04:41:16;8.30;99.90
3281;DHT22;1652;51.318;6.202;2023-04-08T04:43:43;8.30;99.90
3281;DHT22;1652;51.318;6.202;2023-04-08T04:46:10;8.30;99.90
3281;DHT22;1652;51.318;6.202;2023-04-08T04:48:37;8.30;99.90
3281;DHT22;1652;51.318;6.202;2023-04-08T04:51:04;8.30;99.90
3281;DHT22;1652;51.318;6.202;2023-04-08T04:53:33;8.30;99.90
3281;DHT22;1652;51.318;6.202;2023-04-08T04:56:00;8.30;99.90
3281;DHT22;1652;51.318;6.202;2023-04-08T04:58:28;8.30;99.90
3281;DHT22;1652;51.318;6.202;2023-04-08T05:00:55;8.30;99.90
3281;DHT22;1652;51.318;6.202;2023-04-08T05:03:22;8.30;99.90
3281;DHT22;1652;51.318;6.202;2023-04-08T05:05:50;8.40;99.90
3281;DHT22;1652;51.318;6.202;2023-04-08T05:08:18;8.30;99.90
3281;DHT22;1652;51.318;6.202;2023-04-08T05:10:45;8.30;99.90
3281;DHT22;1652;51.318;6.202;2023-04-08T05:13:12;8.40;99.90
3281;DHT22;1652;51.318;6.202;2023-04-08T05:15:39;8.40;99.90
3281;DHT22;1652;51.318;6.202;2023-04-08T05:18:06;8.40;99.90
3281;DHT22;1652;51.318;6.202;2023-04-08T05:20:32;8.40;99.90
3281;DHT22;1652;51.318;6.202;2023-04-08T05:22:59;8.40;99.90
3281;DHT22;1652;51.318;6.202;2023-04-08T05:25:26;8.40;99.90
3281;DHT22;1652;51.318;6.202;2023-04-08T05:27:53;8.40;99.90
3281;DHT22;1652;51.318;6.202;2023-04-08T05:30:20;8.50;99.90
3281;DHT22;1652;51.318;6.202;2023-04-08T05:32:47;8.40;99.90
3281;DHT22;1652;51.318;6.202;2023-04-08T05:35:14;8.50;99.90
3281;DHT22;1652;51.318;6.202;2023-04-08T05:37:41;8.40;99.90
3281;DHT22;1652;51.318;6.202;2023-04-08T05:40:08;8.40;99.90
3281;DHT22;1652;51.318;6.202;2023-04-08T05:42:35;8.40;99.90
3281;DHT22;1652;51.318;6.202;2023-04-08T05:45:02;8.50;99.90
3281;DHT22;1652;51.318;6.202;2023-04-08T05:47:29;8.40;99.90
3281;DHT22;1652;51.318;6.202;2023-04-08T05:49:56;8.40;99.90
3281;DHT22;1652;51.318;6.202;2023-04-08T05:52:23;8.50;99.90
3281;DHT22;1652;51.318;6.202;2023-04-08T05:54:50;8.50;99.90
3281;DHT22;1652;51.318;6.202;2023-04-08T05:57:17;8.50;99.90
3281;DHT22;1652;51.318;6.202;2023-04-08T05:59:44;8.50;99.90
3281;DHT22;1652;51.318;6.202;2023-04-08T06:02:11;8.50;99.90
3281;DHT22;1652;51.318;6.202;2023-04-08T06:04:38;8.50;99.90
3281;DHT22;1652;51.318;6.202;2023-04-08T06:07:05;8.50;99.90
3281;DHT22;1652;51.318;6.202;2023-04-08T06:09:34;8.70;99.90
3281;DHT22;1652;51.318;6.202;2023-04-08T06:12:02;8.60;99.90
3281;DHT22;1652;51.318;6.202;2023-04-08T06:14:29;8.60;99.90
3281;DHT22;1652;51.318;6.202;2023-04-08T06:16:56;8.70;99.90
3281;DHT22;1652;51.318;6.202;2023-04-08T06:19:23;8.60;99.90
3281;DHT22;1652;51.318;6.202;2023-04-08T06:21:50;8.70;99.90
3281;DHT22;1652;51.318;6.202;2023-04-08T06:24:17;8.70;99.90
3281;DHT22;1652;51.318;6.202;2023-04-08T06:26:44;8.70;99.90
3281;DHT22;1652;51.318;6.202;2023-04-08T06:29:11;8.70;99.90
3281;DHT22;1652;51.318;6.202;2023-04-08T06:31:38;8.70;99.90
3281;DHT22;1652;51.318;6.202;2023-04-08T06:34:05;8.70;99.90
3281;DHT22;1652;51.318;6.202;2023-04-08T06:36:31;8.70;99.90
3281;DHT22;1652;51.318;6.202;2023-04-08T06:38:58;8.70;99.90
3281;DHT22;1652;51.318;6.202;2023-04-08T06:41:25;8.70;99.90
3281;DHT22;1652;51.318;6.202;2023-04-08T06:43:52;8.70;99.90
3281;DHT22;1652;51.318;6.202;2023-04-08T06:46:19;8.70;99.90
3281;DHT22;1652;51.318;6.202;2023-04-08T06:48:46;8.80;99.90
3281;DHT22;1652;51.318;6.202;2023-04-08T06:51:14;8.80;99.90
3281;DHT22;1652;51.318;6.202;2023-04-08T06:53:41;8.90;99.90
3281;DHT22;1652;51.318;6.202;2023-04-08T06:56:08;9.10;99.90
3281;DHT22;1652;51.318;6.202;2023-04-08T06:58:35;9.20;99.90
3281;DHT22;1652;51.318;6.202;2023-04-08T07:01:01;9.20;99.90
3281;DHT22;1652;51.318;6.202;2023-04-08T07:03:29;9.20;99.90
3281;DHT22;1652;51.318;6.202;2023-04-08T07:05:56;9.30;99.90
3281;DHT22;1652;51.318;6.202;2023-04-08T07:08:23;9.30;99.90
3281;DHT22;1652;51.318;6.202;2023-04-08T07:10:51;9.40;99.90
3281;DHT22;1652;51.318;6.202;2023-04-08T07:13:18;9.40;99.90
3281;DHT22;1652;51.318;6.202;2023-04-08T07:15:45;9.40;99.90
3281;DHT22;1652;51.318;6.202;2023-04-08T07:18:12;9.50;99.90
3281;DHT22;1652;51.318;6.202;2023-04-08T07:20:39;9.60;99.90
3281;DHT22;1652;51.318;6.202;2023-04-08T07:23:07;9.50;99.90
3281;DHT22;1652;51.318;6.202;2023-04-08T07:25:34;9.50;99.90
3281;DHT22;1652;51.318;6.202;2023-04-08T07:28:01;9.50;99.90
3281;DHT22;1652;51.318;6.202;2023-04-08T07:30:28;9.50;99.90
3281;DHT22;1652;51.318;6.202;2023-04-08T07:32:55;9.60;99.90
3281;DHT22;1652;51.318;6.202;2023-04-08T07:35:26;9.70;99.90
3281;DHT22;1652;51.318;6.202;2023-04-08T07:37:53;9.80;99.90
3281;DHT22;1652;51.318;6.202;2023-04-08T07:40:20;9.90;99.90
3281;DHT22;1652;51.318;6.202;2023-04-08T07:42:48;9.80;99.90
3281;DHT22;1652;51.318;6.202;2023-04-08T07:45:15;9.90;99.90
3281;DHT22;1652;51.318;6.202;2023-04-08T07:47:43;10.00;99.90
3281;DHT22;1652;51.318;6.202;2023-04-08T07:50:10;10.20;99.90
3281;DHT22;1652;51.318;6.202;2023-04-08T07:52:37;10.20;99.90
3281;DHT22;1652;51.318;6.202;2023-04-08T07:55:04;10.30;99.90
3281;DHT22;1652;51.318;6.202;2023-04-08T07:57:32;10.20;99.90
3281;DHT22;1652;51.318;6.202;2023-04-08T07:59:59;10.20;99.90
3281;DHT22;1652;51.318;6.202;2023-04-08T08:02:26;10.20;99.90
3281;DHT22;1652;51.318;6.202;2023-04-08T08:04:53;10.40;99.90
3281;DHT22;1652;51.318;6.202;2023-04-08T08:07:19;10.70;99.90
3281;DHT22;1652;51.318;6.202;2023-04-08T08:09:46;10.90;99.90
3281;DHT22;1652;51.318;6.202;2023-04-08T08:12:13;10.90;99.90
3281;DHT22;1652;51.318;6.202;2023-04-08T08:14:40;11.00;99.90
3281;DHT22;1652;51.318;6.202;2023-04-08T08:17:07;11.00;99.90
3281;DHT22;1652;51.318;6.202;2023-04-08T08:19:34;11.10;99.90
3281;DHT22;1652;51.318;6.202;2023-04-08T08:22:01;10.90;99.90
3281;DHT22;1652;51.318;6.202;2023-04-08T08:24:27;10.80;99.90
3281;DHT22;1652;51.318;6.202;2023-04-08T08:26:54;10.80;99.90
3281;DHT22;1652;51.318;6.202;2023-04-08T08:29:22;10.60;99.90
3281;DHT22;1652;51.318;6.202;2023-04-08T08:31:49;10.70;99.90
3281;DHT22;1652;51.318;6.202;2023-04-08T08:34:16;10.90;99.90
3281;DHT22;1652;51.318;6.202;2023-04-08T08:36:42;11.30;99.90
3281;DHT22;1652;51.318;6.202;2023-04-08T08:39:09;11.40;99.90
3281;DHT22;1652;51.318;6.202;2023-04-08T08:41:36;11.50;99.90
3281;DHT22;1652;51.318;6.202;2023-04-08T08:44:07;11.20;99.90
3281;DHT22;1652;51.318;6.202;2023-04-08T08:46:34;11.10;99.90
3281;DHT22;1652;51.318;6.202;2023-04-08T08:49:01;11.30;99.90
3281;DHT22;1652;51.318;6.202;2023-04-08T08:54:01;11.80;99.90
3281;DHT22;1652;51.318;6.202;2023-04-08T08:56:28;11.70;99.90
3281;DHT22;1652;51.318;6.202;2023-04-08T08:58:55;11.60;99.90
3281;DHT22;1652;51.318;6.202;2023-04-08T09:01:29;11.40;99.90
3281;DHT22;1652;51.318;6.202;2023-04-08T09:04:24;11.10;99.90
3281;DHT22;1652;51.318;6.202;2023-04-08T09:07:09;11.20;99.90
3281;DHT22;1652;51.318;6.202;2023-04-08T09:09:49;11.20;99.90
3281;DHT22;1652;51.318;6.202;2023-04-08T09:12:17;11.30;99.90
3281;DHT22;1652;51.318;6.202;2023-04-08T09:14:44;11.20;99.90
3281;DHT22;1652;51.318;6.202;2023-04-08T09:17:11;11.00;99.90
3281;DHT22;1652;51.318;6.202;2023-04-08T09:19:38;11.00;99.90
3281;DHT22;1652;51.318;6.202;2023-04-08T09:22:09;11.00;99.90
3281;DHT22;1652;51.318;6.202;2023-04-08T09:24:37;10.70;99.90
3281;DHT22;1652;51.318;6.202;2023-04-08T09:27:04;10.40;99.90
3281;DHT22;1652;51.318;6.202;2023-04-08T09:29:31;10.20;99.90
3281;DHT22;1652;51.318;6.202;2023-04-08T09:32:04;10.10;99.90
3281;DHT22;1652;51.318;6.202;2023-04-08T09:34:32;10.10;99.90
3281;DHT22;1652;51.318;6.202;2023-04-08T09:37:00;10.20;99.90
3281;DHT22;1652;51.318;6.202;2023-04-08T09:39:27;10.30;99.90
3281;DHT22;1652;51.318;6.202;2023-04-08T09:41:57;10.40;99.90
3281;DHT22;1652;51.318;6.202;2023-04-08T09:44:28;10.50;99.90
3281;DHT22;1652;51.318;6.202;2023-04-08T09:47:00;10.70;99.90
3281;DHT22;1652;51.318;6.202;2023-04-08T09:49:39;10.70;99.90
3281;DHT22;1652;51.318;6.202;2023-04-08T09:52:12;10.70;99.90
3281;DHT22;1652;51.318;6.202;2023-04-08T09:55:02;10.80;99.90
3281;DHT22;1652;51.318;6.202;2023-04-08T09:57:54;11.00;99.90
3281;DHT22;1652;51.318;6.202;2023-04-08T10:00:31;11.20;99.90
3281;DHT22;1652;51.318;6.202;2023-04-08T10:03:04;11.40;99.90
3281;DHT22;1652;51.318;6.202;2023-04-08T10:05:36;11.30;99.90
3281;DHT22;1652;51.318;6.202;2023-04-08T10:08:05;11.30;99.90
3281;DHT22;1652;51.318;6.202;2023-04-08T10:10:34;11.20;99.90
3281;DHT22;1652;51.318;6.202;2023-04-08T10:13:03;11.10;99.90
3281;DHT22;1652;51.318;6.202;2023-04-08T10:15:32;11.40;99.90
3281;DHT22;1652;51.318;6.202;2023-04-08T10:23:07;11.40;99.90
3281;DHT22;1652;51.318;6.202;2023-04-08T10:25:39;11.40;99.90
3281;DHT22;1652;51.318;6.202;2023-04-08T10:33:10;11.80;99.90
3281;DHT22;1652;51.318;6.202;2023-04-08T10:35:42;11.80;99.90
3281;DHT22;1652;51.318;6.202;2023-04-08T10:38:13;11.60;99.90
3281;DHT22;1652;51.318;6.202;2023-04-08T10:40:41;11.60;99.90
3281;DHT22;1652;51.318;6.202;2023-04-08T10:43:10;11.50;99.90
3281;DHT22;1652;51.318;6.202;2023-04-08T10:45:38;11.50;99.90
3281;DHT22;1652;51.318;6.202;2023-04-08T10:51:01;11.70;99.90
3281;DHT22;1652;51.318;6.202;2023-04-08T10:53:34;11.70;99.90
3281;DHT22;1652;51.318;6.202;2023-04-08T10:56:27;11.50;99.90
3281;DHT22;1652;51.318;6.202;2023-04-08T10:58:55;11.60;99.90
3281;DHT22;1652;51.318;6.202;2023-04-08T11:01:22;11.80;99.90
3281;DHT22;1652;51.318;6.202;2023-04-08T11:03:50;11.90;99.90
3281;DHT22;1652;51.318;6.202;2023-04-08T11:06:17;11.60;99.90
3281;DHT22;1652;51.318;6.202;2023-04-08T11:08:45;11.70;99.90
3281;DHT22;1652;51.318;6.202;2023-04-08T11:11:13;11.80;99.90
3281;DHT22;1652;51.318;6.202;2023-04-08T11:13:42;11.80;99.90
3281;DHT22;1652;51.318;6.202;2023-04-08T11:16:20;11.80;99.90
3281;DHT22;1652;51.318;6.202;2023-04-08T11:18:47;11.80;99.90
3281;DHT22;1652;51.318;6.202;2023-04-08T11:21:15;11.70;99.90
3281;DHT22;1652;51.318;6.202;2023-04-08T11:23:42;11.50;99.90
3281;DHT22;1652;51.318;6.202;2023-04-08T11:26:09;11.60;99.90
3281;DHT22;1652;51.318;6.202;2023-04-08T11:28:37;11.70;99.90
3281;DHT22;1652;51.318;6.202;2023-04-08T11:31:04;12.20;99.90
3281;DHT22;1652;51.318;6.202;2023-04-08T11:33:33;12.50;99.90
3281;DHT22;1652;51.318;6.202;2023-04-08T11:36:01;13.00;99.90
3281;DHT22;1652;51.318;6.202;2023-04-08T11:38:31;13.20;91.50
3281;DHT22;1652;51.318;6.202;2023-04-08T11:40:59;13.30;67.70
3281;DHT22;1652;51.318;6.202;2023-04-08T11:43:26;13.30;66.20
3281;DHT22;1652;51.318;6.202;2023-04-08T11:45:53;13.20;44.70
3281;DHT22;1652;51.318;6.202;2023-04-08T11:48:20;13.20;43.60
3281;DHT22;1652;51.318;6.202;2023-04-08T11:50:47;13.00;62.50
3281;DHT22;1652;51.318;6.202;2023-04-08T11:53:21;12.90;62.90
3281;DHT22;1652;51.318;6.202;2023-04-08T11:55:51;12.80;44.10
3281;DHT22;1652;51.318;6.202;2023-04-08T11:58:18;12.80;10.10
3281;DHT22;1652;51.318;6.202;2023-04-08T12:00:44;12.90;1.00
3281;DHT22;1652;51.318;6.202;2023-04-08T12:03:12;12.80;1.00
3281;DHT22;1652;51.318;6.202;2023-04-08T12:05:39;13.00;1.00
3281;DHT22;1652;51.318;6.202;2023-04-08T12:08:06;13.20;1.00
3281;DHT22;1652;51.318;6.202;2023-04-08T12:10:33;13.60;4.30
3281;DHT22;1652;51.318;6.202;2023-04-08T12:13:00;13.80;1.00
3281;DHT22;1652;51.318;6.202;2023-04-08T12:15:27;13.80;1.00
3281;DHT22;1652;51.318;6.202;2023-04-08T12:17:54;13.80;1.00
3281;DHT22;1652;51.318;6.202;2023-04-08T12:20:21;13.90;1.00
3281;DHT22;1652;51.318;6.202;2023-04-08T12:22:48;14.00;1.00
3281;DHT22;1652;51.318;6.202;2023-04-08T12:25:15;13.90;1.00
3281;DHT22;1652;51.318;6.202;2023-04-08T12:27:42;13.90;1.00
3281;DHT22;1652;51.318;6.202;2023-04-08T12:30:09;13.90;1.00
3281;DHT22;1652;51.318;6.202;2023-04-08T12:32:36;13.90;1.00
3281;DHT22;1652;51.318;6.202;2023-04-08T12:35:03;13.40;1.00
3281;DHT22;1652;51.318;6.202;2023-04-08T12:37:30;13.50;1.00
3281;DHT22;1652;51.318;6.202;2023-04-08T12:39:59;13.70;1.00
3281;DHT22;1652;51.318;6.202;2023-04-08T12:42:25;13.40;1.00
3281;DHT22;1652;51.318;6.202;2023-04-08T12:44:53;13.40;1.00
3281;DHT22;1652;51.318;6.202;2023-04-08T12:47:20;13.20;1.00
3281;DHT22;1652;51.318;6.202;2023-04-08T12:49:50;13.20;1.00
3281;DHT22;1652;51.318;6.202;2023-04-08T12:52:17;13.10;1.00
3281;DHT22;1652;51.318;6.202;2023-04-08T12:54:44;13.20;1.00
3281;DHT22;1652;51.318;6.202;2023-04-08T12:57:11;13.20;1.00
3281;DHT22;1652;51.318;6.202;2023-04-08T12:59:38;13.30;1.00
3281;DHT22;1652;51.318;6.202;2023-04-08T13:02:06;13.00;1.00
3281;DHT22;1652;51.318;6.202;2023-04-08T13:04:34;12.90;1.00
3281;DHT22;1652;51.318;6.202;2023-04-08T13:07:01;12.70;1.00
3281;DHT22;1652;51.318;6.202;2023-04-08T13:09:30;12.80;1.00
3281;DHT22;1652;51.318;6.202;2023-04-08T13:11:57;12.70;1.00
3281;DHT22;1652;51.318;6.202;2023-04-08T13:14:24;12.80;1.00
3281;DHT22;1652;51.318;6.202;2023-04-08T13:16:51;13.00;1.00
3281;DHT22;1652;51.318;6.202;2023-04-08T13:19:18;12.90;1.00
3281;DHT22;1652;51.318;6.202;2023-04-08T13:21:45;12.80;1.00
3281;DHT22;1652;51.318;6.202;2023-04-08T13:24:12;12.70;1.00
3281;DHT22;1652;51.318;6.202;2023-04-08T13:26:39;12.80;1.00
3281;DHT22;1652;51.318;6.202;2023-04-08T13:29:06;12.90;1.00
3281;DHT22;1652;51.318;6.202;2023-04-08T13:31:33;12.90;1.00
3281;DHT22;1652;51.318;6.202;2023-04-08T13:34:00;13.00;1.00
3281;DHT22;1652;51.318;6.202;2023-04-08T13:36:26;13.00;1.00
3281;DHT22;1652;51.318;6.202;2023-04-08T13:38:54;12.90;1.00
3281;DHT22;1652;51.318;6.202;2023-04-08T13:41:22;13.20;1.00
3281;DHT22;1652;51.318;6.202;2023-04-08T13:43:49;13.20;1.00
3281;DHT22;1652;51.318;6.202;2023-04-08T13:46:16;13.20;1.00
3281;DHT22;1652;51.318;6.202;2023-04-08T13:48:43;13.20;1.00
3281;DHT22;1652;51.318;6.202;2023-04-08T13:51:11;13.10;1.00
3281;DHT22;1652;51.318;6.202;2023-04-08T13:53:38;13.00;1.00
3281;DHT22;1652;51.318;6.202;2023-04-08T13:56:05;12.90;1.00
3281;DHT22;1652;51.318;6.202;2023-04-08T13:58:32;12.90;1.00
3281;DHT22;1652;51.318;6.202;2023-04-08T14:00:59;12.90;1.00
3281;DHT22;1652;51.318;6.202;2023-04-08T14:03:26;13.00;1.00
3281;DHT22;1652;51.318;6.202;2023-04-08T14:05:53;13.00;99.90
3281;DHT22;1652;51.318;6.202;2023-04-08T14:08:20;13.00;50.80
3281;DHT22;1652;51.318;6.202;2023-04-08T14:10:52;12.80;99.90
3281;DHT22;1652;51.318;6.202;2023-04-08T14:13:19;12.90;99.90
3281;DHT22;1652;51.318;6.202;2023-04-08T14:15:46;13.10;27.30
3281;DHT22;1652;51.318;6.202;2023-04-08T14:18:15;13.20;99.90
3281;DHT22;1652;51.318;6.202;2023-04-08T14:20:45;13.20;1.00
3281;DHT22;1652;51.318;6.202;2023-04-08T14:23:12;13.30;99.90
3281;DHT22;1652;51.318;6.202;2023-04-08T14:25:39;13.30;99.90
3281;DHT22;1652;51.318;6.202;2023-04-08T14:28:06;13.20;99.90
3281;DHT22;1652;51.318;6.202;2023-04-08T14:30:34;13.10;99.90
3281;DHT22;1652;51.318;6.202;2023-04-08T14:33:02;13.20;1.00
3281;DHT22;1652;51.318;6.202;2023-04-08T14:35:31;13.30;99.90
3281;DHT22;1652;51.318;6.202;2023-04-08T14:37:58;13.30;99.90
3281;DHT22;1652;51.318;6.202;2023-04-08T14:40:25;13.00;99.90
3281;DHT22;1652;51.318;6.202;2023-04-08T14:42:52;13.00;99.90
3281;DHT22;1652;51.318;6.202;2023-04-08T14:45:19;12.90;99.90
3281;DHT22;1652;51.318;6.202;2023-04-08T14:47:46;12.70;99.90
3281;DHT22;1652;51.318;6.202;2023-04-08T14:50:13;12.50;99.90
3281;DHT22;1652;51.318;6.202;2023-04-08T14:52:40;12.30;99.90
3281;DHT22;1652;51.318;6.202;2023-04-08T14:55:07;12.00;1.00
3281;DHT22;1652;51.318;6.202;2023-04-08T14:57:34;12.00;1.00
3281;DHT22;1652;51.318;6.202;2023-04-08T15:00:01;12.00;1.00
3281;DHT22;1652;51.318;6.202;2023-04-08T15:02:29;11.90;1.00
3281;DHT22;1652;51.318;6.202;2023-04-08T15:04:56;11.90;1.00
3281;DHT22;1652;51.318;6.202;2023-04-08T15:07:23;11.90;1.00
3281;DHT22;1652;51.318;6.202;2023-04-08T15:09:50;11.80;1.00
3281;DHT22;1652;51.318;6.202;2023-04-08T15:12:17;11.80;1.00
3281;DHT22;1652;51.318;6.202;2023-04-08T15:14:43;11.90;1.00
3281;DHT22;1652;51.318;6.202;2023-04-08T15:17:10;12.00;1.00
3281;DHT22;1652;51.318;6.202;2023-04-08T15:19:37;12.00;1.00
3281;DHT22;1652;51.318;6.202;2023-04-08T15:22:04;12.10;1.00
3281;DHT22;1652;51.318;6.202;2023-04-08T15:24:31;12.10;1.00
3281;DHT22;1652;51.318;6.202;2023-04-08T15:26:58;12.00;1.00
3281;DHT22;1652;51.318;6.202;2023-04-08T15:29:25;12.00;2.30
3281;DHT22;1652;51.318;6.202;2023-04-08T15:31:51;12.10;1.90
3281;DHT22;1652;51.318;6.202;2023-04-08T15:34:18;12.00;3.90
3281;DHT22;1652;51.318;6.202;2023-04-08T15:36:45;12.00;8.00
3281;DHT22;1652;51.318;6.202;2023-04-08T15:39:13;12.00;14.60
3281;DHT22;1652;51.318;6.202;2023-04-08T15:41:40;12.10;2.10
3281;DHT22;1652;51.318;6.202;2023-04-08T15:44:07;12.00;11.50
3281;DHT22;1652;51.318;6.202;2023-04-08T15:46:34;12.30;5.00
3281;DHT22;1652;51.318;6.202;2023-04-08T15:49:03;12.50;2.20
3281;DHT22;1652;51.318;6.202;2023-04-08T15:51:33;12.60;1.00
3281;DHT22;1652;51.318;6.202;2023-04-08T15:54:00;12.80;1.00
3281;DHT22;1652;51.318;6.202;2023-04-08T15:56:27;12.80;1.00
3281;DHT22;1652;51.318;6.202;2023-04-08T15:58:55;13.00;1.00
3281;DHT22;1652;51.318;6.202;2023-04-08T16:01:22;13.10;1.00
3281;DHT22;1652;51.318;6.202;2023-04-08T16:03:49;13.10;1.00
3281;DHT22;1652;51.318;6.202;2023-04-08T16:06:16;13.00;1.00
3281;DHT22;1652;51.318;6.202;2023-04-08T16:08:43;12.90;12.70
3281;DHT22;1652;51.318;6.202;2023-04-08T16:11:12;13.00;8.80
3281;DHT22;1652;51.318;6.202;2023-04-08T16:13:39;13.00;14.50
3281;DHT22;1652;51.318;6.202;2023-04-08T16:16:08;12.80;8.60
3281;DHT22;1652;51.318;6.202;2023-04-08T16:18:35;12.80;15.20
3281;DHT22;1652;51.318;6.202;2023-04-08T16:21:04;12.70;12.20
3281;DHT22;1652;51.318;6.202;2023-04-08T16:23:32;12.60;14.70
3281;DHT22;1652;51.318;6.202;2023-04-08T16:25:59;12.50;26.80
3281;DHT22;1652;51.318;6.202;2023-04-08T16:28:27;12.50;29.00
3281;DHT22;1652;51.318;6.202;2023-04-08T16:30:54;12.50;26.30
3281;DHT22;1652;51.318;6.202;2023-04-08T16:33:21;12.50;44.50
3281;DHT22;1652;51.318;6.202;2023-04-08T16:35:51;12.50;34.90